createdAt,value
2018-08-19T00:02:25.674Z,67.00
2018-08-19T00:05:08.451Z,67.00
2018-08-19T00:07:38.665Z,66.90
2018-08-19T00:10:09.158Z,67.00
2018-08-19T00:12:42.833Z,67.00
2018-08-19T00:15:12.872Z,67.00
2018-08-19T00:17:42.580Z,67.10
2018-08-19T00:20:13.449Z,67.10
2018-08-19T00:22:42.963Z,67.10
2018-08-19T00:25:22.777Z,67.10
2018-08-19T00:27:52.477Z,67.20
2018-08-19T00:30:22.070Z,67.20
2018-08-19T00:32:52.127Z,67.30
2018-08-19T00:35:21.840Z,67.90
2018-08-19T00:37:51.508Z,67.20
2018-08-19T00:40:21.873Z,67.20
2018-08-19T00:42:51.404Z,67.30
2018-08-19T00:45:28.389Z,67.30
2018-08-19T00:48:02.266Z,67.30
2018-08-19T00:50:36.959Z,67.40
2018-08-19T00:53:08.454Z,67.30
2018-08-19T00:55:53.529Z,67.30
2018-08-19T00:58:23.193Z,67.30
2018-08-19T01:00:52.893Z,67.20
2018-08-19T01:03:22.535Z,67.20
2018-08-19T01:05:52.405Z,67.30
2018-08-19T01:08:22.022Z,67.30
2018-08-19T01:10:51.612Z,67.40
2018-08-19T01:13:21.564Z,67.50
2018-08-19T01:15:51.549Z,67.40
2018-08-19T01:18:21.281Z,67.40
2018-08-19T01:21:00.852Z,67.30
2018-08-19T01:23:30.454Z,67.40
2018-08-19T01:26:00.247Z,67.50
2018-08-19T01:28:29.863Z,67.40
2018-08-19T01:30:59.506Z,67.40
2018-08-19T01:33:30.421Z,67.50
2018-08-19T01:36:00.285Z,67.50
2018-08-19T01:38:30.281Z,67.40
2018-08-19T01:41:01.042Z,67.60
2018-08-19T01:43:30.594Z,67.50
2018-08-19T01:46:00.594Z,67.70
2018-08-19T01:48:30.107Z,67.50
2018-08-19T01:50:59.792Z,67.50
2018-08-19T01:53:32.703Z,67.60
2018-08-19T01:56:02.236Z,67.60
2018-08-19T01:58:36.548Z,67.60
2018-08-19T02:01:06.266Z,67.50
2018-08-19T02:03:38.827Z,67.60
2018-08-19T02:06:08.600Z,67.60
2018-08-19T02:08:38.253Z,67.60
2018-08-19T02:11:23.411Z,67.70
2018-08-19T02:13:54.901Z,67.70
2018-08-19T02:16:24.443Z,68.60
2018-08-19T02:18:54.166Z,67.80
2018-08-19T02:21:23.869Z,67.90
2018-08-19T02:23:53.554Z,67.90
2018-08-19T02:26:32.618Z,67.90
2018-08-19T02:29:02.225Z,67.90
2018-08-19T02:31:31.816Z,68.00
2018-08-19T02:34:01.403Z,67.90
2018-08-19T02:36:31.182Z,67.90
2018-08-19T02:39:00.963Z,68.10
2018-08-19T02:41:31.016Z,68.00
2018-08-19T02:44:00.666Z,68.00
2018-08-19T02:46:30.398Z,68.10
2018-08-19T02:48:59.877Z,68.20
2018-08-19T02:51:29.441Z,68.20
2018-08-19T02:53:59.139Z,68.10
2018-08-19T02:56:28.667Z,68.20
2018-08-19T02:58:58.373Z,68.20
2018-08-19T03:01:27.855Z,68.20
2018-08-19T03:03:57.350Z,68.30
2018-08-19T03:06:26.885Z,68.40
2018-08-19T03:08:58.573Z,68.40
2018-08-19T03:11:28.546Z,68.50
2018-08-19T03:13:58.073Z,68.30
2018-08-19T03:16:27.770Z,68.50
2018-08-19T03:18:57.540Z,68.30
2018-08-19T03:21:27.100Z,68.40
2018-08-19T03:23:56.839Z,68.50
2018-08-19T03:26:26.674Z,68.50
2018-08-19T03:28:56.229Z,68.50
2018-08-19T03:31:25.722Z,68.50
2018-08-19T03:33:55.461Z,68.50
2018-08-19T03:36:25.209Z,68.60
2018-08-19T03:38:55.329Z,68.60
2018-08-19T03:41:24.822Z,68.60
2018-08-19T03:43:58.531Z,68.60
2018-08-19T03:46:29.763Z,68.70
2018-08-19T03:48:59.274Z,68.70
2018-08-19T03:51:29.018Z,68.60
2018-08-19T03:53:58.512Z,68.70
2018-08-19T03:56:28.313Z,68.70
2018-08-19T03:58:58.908Z,68.80
2018-08-19T04:01:38.238Z,68.70
2018-08-19T04:04:07.805Z,68.70
2018-08-19T04:06:38.927Z,68.70
2018-08-19T04:09:08.785Z,68.80
2018-08-19T04:11:38.346Z,68.90
2018-08-19T04:14:26.753Z,68.90
2018-08-19T04:16:58.636Z,68.90
2018-08-19T04:19:28.952Z,69.00
2018-08-19T04:22:01.049Z,69.00
2018-08-19T04:24:31.175Z,69.10
2018-08-19T04:27:12.396Z,69.10
2018-08-19T04:29:42.003Z,69.10
2018-08-19T04:32:19.227Z,69.20
2018-08-19T04:34:48.718Z,69.70
2018-08-19T04:37:18.273Z,69.30
2018-08-19T04:39:48.053Z,69.30
2018-08-19T04:42:17.702Z,69.40
2018-08-19T04:44:47.204Z,69.40
2018-08-19T04:47:28.403Z,69.70
2018-08-19T04:49:58.162Z,69.60
2018-08-19T04:52:27.875Z,70.30
2018-08-19T04:54:57.671Z,69.80
2018-08-19T04:57:28.010Z,70.00
2018-08-19T04:59:57.643Z,69.90
2018-08-19T05:02:27.445Z,70.70
2018-08-19T05:04:57.041Z,70.10
2018-08-19T05:07:26.566Z,70.10
2018-08-19T05:09:56.236Z,70.20
2018-08-19T05:12:25.707Z,70.30
2018-08-19T05:14:55.542Z,70.30
2018-08-19T05:17:25.098Z,70.40
2018-08-19T05:20:05.504Z,70.50
2018-08-19T05:22:35.217Z,70.80
2018-08-19T05:25:04.994Z,70.80
2018-08-19T05:27:34.518Z,71.30
2018-08-19T05:30:04.854Z,70.70
2018-08-19T05:32:34.456Z,71.00
2018-08-19T05:35:04.089Z,71.00
2018-08-19T05:37:33.626Z,71.30
2018-08-19T05:40:03.412Z,71.20
2018-08-19T05:42:33.201Z,71.30
2018-08-19T05:45:02.784Z,71.30
2018-08-19T05:47:32.481Z,71.30
2018-08-19T05:50:02.015Z,71.70
2018-08-19T05:52:31.619Z,72.10
2018-08-19T05:55:01.763Z,71.90
2018-08-19T05:57:33.713Z,71.70
2018-08-19T06:00:08.960Z,71.20
2018-08-19T06:02:42.828Z,71.90
2018-08-19T06:05:12.662Z,72.20
2018-08-19T06:07:42.728Z,72.60
2018-08-19T06:10:12.722Z,72.40
2018-08-19T06:12:45.496Z,72.30
2018-08-19T06:15:15.269Z,72.50
2018-08-19T06:17:47.115Z,72.50
2018-08-19T06:20:17.103Z,72.60
2018-08-19T06:22:47.130Z,72.70
2018-08-19T06:25:16.672Z,72.60
2018-08-19T06:27:48.293Z,72.70
2018-08-19T06:30:19.012Z,72.90
2018-08-19T06:32:48.727Z,72.70
2018-08-19T06:35:18.782Z,72.90
2018-08-19T06:37:48.506Z,73.00
2018-08-19T06:40:19.404Z,73.00
2018-08-19T06:42:49.999Z,73.00
2018-08-19T06:45:19.809Z,73.20
2018-08-19T06:47:49.979Z,73.30
2018-08-19T06:50:28.310Z,73.10
2018-08-19T06:52:58.392Z,73.30
2018-08-19T06:55:28.386Z,73.50
2018-08-19T06:57:59.513Z,73.50
2018-08-19T07:00:30.155Z,73.40
2018-08-19T07:03:01.178Z,73.90
2018-08-19T07:05:31.254Z,73.90
2018-08-19T07:08:01.087Z,74.10
2018-08-19T07:10:35.992Z,73.80
2018-08-19T07:13:11.013Z,74.10
2018-08-19T07:15:42.012Z,74.60
2018-08-19T07:18:13.755Z,74.30
2018-08-19T07:20:44.456Z,74.30
2018-08-19T07:23:14.539Z,74.20
2018-08-19T07:25:45.305Z,74.30
2018-08-19T07:28:16.703Z,74.30
2018-08-19T07:30:47.461Z,74.50
2018-08-19T07:33:17.108Z,74.40
2018-08-19T07:35:46.931Z,74.60
2018-08-19T07:38:17.835Z,74.70
2018-08-19T07:40:47.515Z,74.40
2018-08-19T07:43:17.236Z,74.40
2018-08-19T07:45:47.310Z,74.20
2018-08-19T07:48:17.321Z,74.20
2018-08-19T07:50:47.013Z,74.10
2018-08-19T07:53:16.902Z,73.90
2018-08-19T07:55:47.088Z,74.00
2018-08-19T07:59:09.664Z,73.80
2018-08-19T08:01:40.688Z,73.60
2018-08-19T08:04:10.441Z,73.70
2018-08-19T08:06:40.322Z,73.70
2018-08-19T08:09:10.853Z,73.50
2018-08-19T08:11:40.615Z,73.30
2018-08-19T08:14:10.262Z,73.00
2018-08-19T08:16:45.165Z,73.20
2018-08-19T08:19:15.066Z,73.00
2018-08-19T08:21:44.830Z,73.20
2018-08-19T08:24:14.639Z,73.00
2018-08-19T08:26:49.382Z,73.00
2018-08-19T08:29:20.242Z,72.80
2018-08-19T08:31:56.459Z,73.00
2018-08-19T08:34:27.823Z,72.90
2018-08-19T08:37:02.571Z,73.00
2018-08-19T08:39:34.014Z,72.80
2018-08-19T08:42:03.762Z,72.70
2018-08-19T08:44:33.868Z,72.80
2018-08-19T08:47:07.777Z,72.80
2018-08-19T08:49:42.658Z,72.90
2018-08-19T08:52:17.660Z,72.80
2018-08-19T08:54:52.595Z,72.70
2018-08-19T08:57:23.306Z,72.80
2018-08-19T08:59:53.486Z,72.70
2018-08-19T09:02:23.751Z,72.80
2018-08-19T09:04:54.765Z,72.60
2018-08-19T09:07:24.979Z,72.50
2018-08-19T09:09:54.748Z,72.40
2018-08-19T09:12:35.614Z,72.20
2018-08-19T09:15:05.871Z,72.10
2018-08-19T09:17:36.219Z,72.00
2018-08-19T09:20:07.842Z,72.00
2018-08-19T09:22:37.628Z,71.70
2018-08-19T09:25:08.522Z,71.70
2018-08-19T09:27:39.118Z,71.80
2018-08-19T09:30:10.492Z,71.80
2018-08-19T09:32:55.388Z,71.70
2018-08-19T09:35:26.051Z,71.50
2018-08-19T09:38:01.107Z,71.40
2018-08-19T09:40:31.460Z,70.80
2018-08-19T09:43:01.560Z,71.00
2018-08-19T09:45:31.699Z,70.90
2018-08-19T09:48:02.755Z,70.80
2018-08-19T09:50:33.785Z,70.70
2018-08-19T09:53:03.960Z,70.60
2018-08-19T09:55:39.750Z,70.70
2018-08-19T09:58:15.050Z,70.70
2018-08-19T10:00:49.919Z,70.60
2018-08-19T10:03:19.613Z,70.50
2018-08-19T10:05:49.305Z,70.60
2018-08-19T10:08:21.432Z,70.40
2018-08-19T10:10:51.514Z,70.30
2018-08-19T10:13:21.443Z,70.30
2018-08-19T10:15:51.104Z,70.20
2018-08-19T10:18:21.047Z,70.20
2018-08-19T10:20:51.117Z,69.00
2018-08-19T10:23:24.734Z,69.20
2018-08-19T10:25:54.685Z,69.50
2018-08-19T10:28:24.675Z,69.70
2018-08-19T10:30:58.869Z,69.80
2018-08-19T10:33:28.791Z,69.70
2018-08-19T10:36:00.016Z,69.50
2018-08-19T10:38:30.286Z,69.50
2018-08-19T10:41:05.621Z,69.40
2018-08-19T10:43:35.794Z,69.20
2018-08-19T10:46:05.457Z,69.30
2018-08-19T10:48:35.051Z,69.40
2018-08-19T10:51:04.935Z,69.20
2018-08-19T10:53:34.995Z,69.20
2018-08-19T10:56:04.797Z,69.20
2018-08-19T10:58:34.451Z,69.00
2018-08-19T11:01:04.368Z,69.20
2018-08-19T11:03:34.435Z,69.30
2018-08-19T11:06:04.181Z,69.30
2018-08-19T11:08:34.091Z,69.30
2018-08-19T11:11:04.229Z,69.20
2018-08-19T11:13:34.299Z,69.30
2018-08-19T11:16:04.286Z,69.30
2018-08-19T11:18:36.641Z,69.30
2018-08-19T11:21:13.851Z,68.90
2018-08-19T11:23:44.820Z,69.00
2018-08-19T11:26:14.756Z,69.10
2018-08-19T11:29:04.580Z,69.00
2018-08-19T11:31:35.809Z,69.10
2018-08-19T11:34:07.303Z,68.80
2018-08-19T11:36:41.940Z,68.50
2018-08-19T11:39:14.429Z,68.70
2018-08-19T11:41:44.049Z,69.20
2018-08-19T11:44:16.765Z,69.00
2018-08-19T11:46:47.847Z,68.30
2018-08-19T11:49:18.822Z,68.20
2018-08-19T11:51:52.391Z,68.40
2018-08-19T11:54:23.134Z,67.90
2018-08-19T11:56:58.976Z,67.20
2018-08-19T11:59:34.097Z,66.70
2018-08-19T12:02:04.360Z,66.70
2018-08-19T12:04:35.118Z,66.80
2018-08-19T12:07:05.475Z,67.30
2018-08-19T12:09:36.313Z,67.40
2018-08-19T12:12:06.105Z,67.60
2018-08-19T12:14:36.960Z,67.60
2018-08-19T12:17:09.005Z,67.60
2018-08-19T12:19:41.099Z,67.70
2018-08-19T12:22:10.911Z,67.70
2018-08-19T12:24:43.275Z,67.60
2018-08-19T12:27:17.208Z,67.50
2018-08-19T12:29:47.553Z,67.40
2018-08-19T12:32:26.339Z,67.40
2018-08-19T12:35:00.049Z,67.50
2018-08-19T12:37:31.060Z,67.50
2018-08-19T12:40:01.291Z,67.40
2018-08-19T12:42:31.953Z,67.40
2018-08-19T12:45:07.709Z,67.50
2018-08-19T12:47:37.860Z,67.50
2018-08-19T12:50:11.222Z,67.00
2018-08-19T12:52:41.212Z,67.20
2018-08-19T12:55:14.191Z,67.10
2018-08-19T12:57:44.687Z,66.90
2018-08-19T13:00:20.873Z,66.80
2018-08-19T13:02:52.328Z,66.70
2018-08-19T13:05:22.701Z,66.60
2018-08-19T13:07:52.716Z,66.60
2018-08-19T13:10:22.975Z,66.60
2018-08-19T13:12:57.323Z,66.60
2018-08-19T13:15:29.743Z,66.60
2018-08-19T13:18:02.899Z,66.70
2018-08-19T13:20:33.053Z,66.70
2018-08-19T13:23:04.571Z,66.80
2018-08-19T13:25:34.514Z,66.40
2018-08-19T13:28:04.408Z,65.80
2018-08-19T13:30:34.170Z,66.20
2018-08-19T13:33:07.475Z,66.30
2018-08-19T13:35:37.199Z,66.40
2018-08-19T13:38:06.836Z,66.30
2018-08-19T13:40:37.542Z,65.90
2018-08-19T13:43:07.336Z,65.80
2018-08-19T13:45:37.016Z,65.90
2018-08-19T13:48:06.826Z,66.30
2018-08-19T13:50:36.759Z,66.30
2018-08-19T13:53:06.715Z,66.40
2018-08-19T13:55:37.852Z,66.40
2018-08-19T13:58:07.762Z,66.50
2018-08-19T14:00:37.800Z,66.50
2018-08-19T14:03:07.895Z,66.40
2018-08-19T14:05:37.625Z,66.40
2018-08-19T14:08:07.326Z,66.40
2018-08-19T14:10:37.430Z,66.40
2018-08-19T14:13:07.218Z,66.50
2018-08-19T14:15:37.185Z,66.40
2018-08-19T14:18:07.093Z,66.60
2018-08-19T14:23:36.989Z,66.90
2018-08-19T14:26:06.901Z,67.20
2018-08-19T14:28:37.061Z,66.50
2018-08-19T14:31:06.790Z,66.50
2018-08-19T14:33:36.549Z,66.30
2018-08-19T14:36:06.842Z,66.10
2018-08-19T14:38:36.675Z,66.30
2018-08-19T14:41:06.572Z,66.10
2018-08-19T14:43:46.287Z,66.10
2018-08-19T14:46:16.183Z,65.90
2018-08-19T14:48:47.248Z,66.00
2018-08-19T14:51:17.041Z,65.60
2018-08-19T14:53:46.854Z,65.80
2018-08-19T14:56:17.489Z,65.70
2018-08-19T14:58:47.183Z,65.80
2018-08-19T15:01:17.107Z,65.90
2018-08-19T15:03:52.229Z,65.90
2018-08-19T15:06:22.044Z,66.00
2018-08-19T15:08:51.853Z,65.80
2018-08-19T15:11:21.842Z,66.00
2018-08-19T15:13:51.716Z,66.00
2018-08-19T15:16:21.699Z,65.80
2018-08-19T15:18:51.591Z,65.60
2018-08-19T15:21:21.389Z,65.60
2018-08-19T15:23:51.137Z,65.60
2018-08-19T15:26:21.751Z,65.30
2018-08-19T15:28:51.662Z,65.40
2018-08-19T15:31:26.720Z,65.30
2018-08-19T15:33:56.753Z,65.40
2018-08-19T15:36:26.543Z,65.50
2018-08-19T15:38:56.347Z,65.50
2018-08-19T15:41:26.044Z,65.20
2018-08-19T15:43:55.791Z,65.30
2018-08-19T15:46:25.800Z,65.20
2018-08-19T15:48:55.933Z,65.40
2018-08-19T15:51:25.880Z,65.40
2018-08-19T15:53:55.725Z,65.10
2018-08-19T15:56:26.892Z,65.30
2018-08-19T15:58:56.857Z,65.30
2018-08-19T16:01:30.060Z,65.40
2018-08-19T16:04:04.954Z,65.00
2018-08-19T16:06:34.929Z,64.80
2018-08-19T16:09:08.263Z,63.80
2018-08-19T16:11:39.525Z,64.20
2018-08-19T16:14:17.588Z,64.10
2018-08-19T16:16:47.584Z,64.10
2018-08-19T16:19:17.617Z,64.10
2018-08-19T16:21:49.842Z,64.10
2018-08-19T16:24:20.049Z,64.00
2018-08-19T16:26:50.657Z,64.00
2018-08-19T16:29:20.856Z,63.90
2018-08-19T16:31:50.591Z,63.90
2018-08-19T16:34:20.454Z,64.00
2018-08-19T16:36:50.980Z,63.80
2018-08-19T16:39:21.324Z,63.80
2018-08-19T16:41:51.554Z,64.00
2018-08-19T16:44:21.221Z,64.80
2018-08-19T16:46:51.269Z,64.20
2018-08-19T16:49:20.977Z,64.20
2018-08-19T16:51:50.671Z,64.30
2018-08-19T16:54:20.288Z,64.90
2018-08-19T16:56:50.670Z,64.40
2018-08-19T16:59:20.582Z,64.30
2018-08-19T17:01:50.314Z,64.30
2018-08-19T17:04:20.065Z,64.30
2018-08-19T17:06:49.732Z,64.40
2018-08-19T17:09:21.608Z,64.30
2018-08-19T17:11:53.386Z,64.50
2018-08-19T17:14:24.597Z,64.50
2018-08-19T17:16:54.648Z,64.40
2018-08-19T17:19:24.453Z,64.20
2018-08-19T17:21:55.837Z,64.20
2018-08-19T17:24:25.833Z,64.40
2018-08-19T17:27:00.710Z,64.50
2018-08-19T17:29:32.576Z,64.50
2018-08-19T17:32:02.411Z,64.50
2018-08-19T17:34:32.447Z,64.60
2018-08-19T17:37:02.212Z,64.60
2018-08-19T17:39:32.567Z,64.70
2018-08-19T17:42:02.181Z,64.70
2018-08-19T17:44:31.926Z,64.80
2018-08-19T17:47:01.889Z,64.90
2018-08-19T17:49:32.292Z,65.00
2018-08-19T17:52:02.491Z,65.10
2018-08-19T17:54:33.342Z,65.20
2018-08-19T17:57:03.400Z,65.50
2018-08-19T17:59:33.246Z,65.70
2018-08-19T18:02:03.190Z,66.00
2018-08-19T18:04:38.430Z,66.10
2018-08-19T18:07:11.315Z,66.30
2018-08-19T18:09:45.105Z,66.60
2018-08-19T18:12:15.308Z,66.60
2018-08-19T18:14:45.432Z,66.70
2018-08-19T18:17:15.336Z,67.00
2018-08-19T18:19:44.964Z,67.00
2018-08-19T18:22:15.298Z,66.90
2018-08-19T18:24:50.504Z,67.10
2018-08-19T18:27:20.739Z,67.20
2018-08-19T18:29:51.649Z,67.30
2018-08-19T18:32:23.098Z,67.30
2018-08-19T18:34:52.842Z,67.50
2018-08-19T18:37:24.293Z,67.60
2018-08-19T18:39:54.788Z,67.50
2018-08-19T18:42:35.568Z,67.60
2018-08-19T18:45:09.644Z,68.90
2018-08-19T18:47:49.416Z,70.10
2018-08-19T18:50:24.772Z,70.50
2018-08-19T18:52:55.028Z,70.70
2018-08-19T18:55:25.229Z,70.70
2018-08-19T18:57:56.235Z,72.00
2018-08-19T19:00:27.048Z,71.60
2018-08-19T19:03:00.770Z,72.00
2018-08-19T19:05:40.266Z,72.30
2018-08-19T19:08:17.564Z,72.20
2018-08-19T19:10:53.624Z,72.30
2018-08-19T19:13:24.740Z,72.70
2018-08-19T19:15:54.661Z,72.80
2018-08-19T19:18:24.762Z,73.00
2018-08-19T19:20:59.585Z,73.20
2018-08-19T19:23:33.894Z,73.50
2018-08-19T19:26:05.004Z,73.60
2018-08-19T19:28:35.047Z,74.10
2018-08-19T19:31:10.096Z,74.20
2018-08-19T19:33:39.986Z,74.20
2018-08-19T19:36:14.882Z,74.50
2018-08-19T19:38:49.290Z,75.10
2018-08-19T19:41:23.092Z,75.10
2018-08-19T19:43:53.113Z,75.50
2018-08-19T19:46:23.623Z,76.00
2018-08-19T19:48:54.400Z,75.80
2018-08-19T19:51:26.957Z,76.60
2018-08-19T19:53:56.840Z,76.60
2018-08-19T19:56:26.652Z,76.40
2018-08-19T19:58:56.659Z,76.20
2018-08-19T20:01:26.580Z,76.30
2018-08-19T20:03:57.411Z,76.30
2018-08-19T20:06:27.305Z,76.80
2018-08-19T20:09:00.226Z,76.20
2018-08-19T20:11:31.083Z,75.40
2018-08-19T20:14:02.573Z,75.10
2018-08-19T20:16:32.531Z,74.80
2018-08-19T20:19:02.338Z,74.80
2018-08-19T20:21:35.082Z,74.50
2018-08-19T20:24:05.243Z,74.50
2018-08-19T20:26:34.942Z,74.30
2018-08-19T20:29:04.682Z,74.50
2018-08-19T20:31:34.386Z,74.70
2018-08-19T20:34:04.482Z,74.50
2018-08-19T20:36:34.311Z,74.50
2018-08-19T20:39:06.803Z,74.60
2018-08-19T20:41:36.691Z,74.40
2018-08-19T20:44:08.471Z,74.70
2018-08-19T20:46:43.332Z,74.60
2018-08-19T20:49:13.232Z,74.40
2018-08-19T20:51:43.041Z,74.60
2018-08-19T20:54:12.679Z,74.40
2018-08-19T20:56:42.448Z,74.40
2018-08-19T20:59:12.313Z,74.20
2018-08-19T21:01:42.147Z,74.20
2018-08-19T21:04:11.850Z,74.90
2018-08-19T21:06:41.743Z,74.90
2018-08-19T21:09:11.580Z,74.90
2018-08-19T21:11:41.593Z,75.10
2018-08-19T21:14:11.577Z,75.00
2018-08-19T21:16:41.677Z,75.20
2018-08-19T21:19:12.031Z,75.20
2018-08-19T21:21:42.247Z,75.40
2018-08-19T21:24:11.797Z,75.20
2018-08-19T21:26:44.820Z,75.40
2018-08-19T21:29:15.263Z,75.20
2018-08-19T21:31:45.597Z,75.40
2018-08-19T21:34:15.658Z,75.20
2018-08-19T21:36:45.181Z,75.10
2018-08-19T21:39:14.935Z,75.20
2018-08-19T21:41:49.478Z,75.40
2018-08-19T21:44:19.443Z,75.20
2018-08-19T21:46:49.040Z,75.40
2018-08-19T21:49:18.743Z,75.20
2018-08-19T21:51:48.890Z,75.30
2018-08-19T21:54:18.467Z,75.40
2018-08-19T21:56:48.034Z,75.40
2018-08-19T21:59:24.749Z,75.60
2018-08-19T22:01:57.850Z,75.40
2018-08-19T22:04:27.983Z,75.50
2018-08-19T22:06:57.741Z,75.50
2018-08-19T22:09:30.958Z,75.90
2018-08-19T22:12:01.237Z,75.70
2018-08-19T22:14:31.517Z,75.40
2018-08-19T22:17:06.232Z,75.40
2018-08-19T22:19:35.959Z,75.50
2018-08-19T22:22:06.847Z,75.40
2018-08-19T22:24:36.518Z,75.50
2018-08-19T22:27:12.883Z,75.50
2018-08-19T22:29:42.761Z,75.70
2018-08-19T22:32:12.897Z,75.50
2018-08-19T22:34:42.715Z,75.40
2018-08-19T22:37:12.534Z,75.60
2018-08-19T22:39:42.551Z,75.60
2018-08-19T22:42:12.308Z,75.40
2018-08-19T22:44:41.979Z,75.50
2018-08-19T22:47:12.018Z,75.50
2018-08-19T22:49:41.525Z,75.60
2018-08-19T22:52:26.493Z,75.70
2018-08-19T22:54:57.565Z,75.70
2018-08-19T22:57:28.120Z,75.70
2018-08-19T22:59:58.383Z,75.70
2018-08-19T23:02:29.032Z,76.60
2018-08-19T23:04:58.526Z,75.70
2018-08-19T23:07:28.004Z,75.70
2018-08-19T23:09:57.486Z,76.50
2018-08-19T23:12:27.693Z,75.60
2018-08-19T23:15:08.370Z,75.70
2018-08-19T23:17:38.151Z,76.60
2018-08-19T23:20:07.715Z,75.90
2018-08-19T23:22:38.287Z,75.90
2018-08-19T23:25:07.897Z,75.70
2018-08-19T23:27:37.622Z,75.90
2018-08-19T23:30:07.263Z,76.00
2018-08-19T23:32:36.786Z,75.70
2018-08-19T23:35:06.692Z,75.80
2018-08-19T23:37:36.278Z,75.70
2018-08-19T23:40:06.021Z,76.00
2018-08-19T23:42:35.685Z,75.90
2018-08-19T23:45:05.767Z,75.90
2018-08-19T23:47:35.267Z,75.70
2018-08-19T23:50:04.951Z,75.80
2018-08-19T23:52:34.506Z,75.80
2018-08-19T23:55:04.450Z,75.90
2018-08-19T23:57:33.942Z,75.80
